Impacts METAR Board
IDs:

KIAH - Houston/Bush Intl, TX, US

Updated at: 2100 UTC 02 Oct 2022
Potential Impact None Slight Moderate High
Time 02/09Z 02/10Z 02/11Z 02/12Z 02/13Z 02/14Z 02/15Z 02/16Z 02/17Z 02/18Z 02/19Z 02/20Z 02/21Z
Temp60 57 57 56 58 65 72 76 80 81 83 85 85
Dewpt47 48 47 47 50 50 50 51 48 47 46 47 46
Altim30.06 30.07 30.09 30.11 30.13 30.15 30.16 30.17 30.15 30.13 30.11 30.08 30.07
VIS10 10 10 10 10 10 10 10 10 10 10 10 10
CIG-- -- -- -- -- -- -- -- -- -- -- -- --
CoverFEWFEWSCTFEWFEWFEWFEWSCTFEWFEWSCTSCTSCT
FltCatVFRVFRVFRVFRVFRVFRVFRVFRVFRVFRVFRVFRVFR
WX--------------------------
WDir03503600007090902070100
WSpd0 3 4 0 0 0 5 6 4 5 7 9 5
WGst-- -- -- -- -- -- -- -- -- -- 17 -- 14
Raw hourly METARs
KIAH 020853Z 00000KT 10SM FEW250 16/08 A3006 RMK AO2 SLP179 T01560083 58001
KIAH 020953Z 35003KT 10SM FEW250 14/09 A3007 RMK AO2 SLP183 T01390089
KIAH 021053Z 36004KT 10SM SCT250 14/08 A3009 RMK AO2 SLP188 T01390083
KIAH 021153Z 00000KT 10SM FEW250 13/08 A3011 RMK AO2 SLP195 T01330083 10172 20128 53016
KIAH 021253Z 00000KT 10SM FEW250 14/10 A3013 RMK AO2 SLP201 T01440100
KIAH 021353Z 00000KT 10SM FEW250 18/10 A3015 RMK AO2 SLP208 T01830100
KIAH 021453Z 07005KT 10SM FEW250 22/10 A3016 RMK AO2 SLP212 T02220100 51017
KIAH 021553Z 09006KT 10SM SCT250 24/11 A3017 RMK AO2 SLP215 T02440106
KIAH 021653Z 09004KT 10SM FEW250 27/09 A3015 RMK AO2 SLP210 T02670089
KIAH 021753Z COR 02005KT 10SM FEW250 27/08 A3013 RMK AO2 SLP202 T02720083 10278 20128 58010
KIAH 021853Z 07007G17KT 10SM SCT250 28/08 A3011 RMK AO2 SLP195 T02830078
KIAH 021953Z 01009KT 10SM SCT250 29/08 A3008 RMK AO2 SLP186 T02940083
KIAH 022053Z VRB05G14KT 10SM SCT250 29/08 A3007 RMK AO2 SLP182 T02940078 56020



Page loaded:  21:43 UTC  |   02:43 PM Pacific  |   03:43 PM Mountain  |   04:43 PM Central  |   05:43 PM Eastern

 

ADVISORIES

FORECASTS

FORECASTS

OBSERVATIONS

USER TOOLS

ABOUT US